Time;durP1;ratioP1;P1;durP2;ratioP2;P2;SDS_P1;SDS_P2;PMS_P1;PMS_P2;Temp;Humidity;BMP_temperature;BMP_pressure;BME280_temperature;BME280_humidity;BME280_pressure;Samples;Min_cycle;Max_cycle;Signal;HPM_P1;HPM_P2
2022/09/18 00:00:08;;;;;;;3.17;1.87;;;10.60;99.90;;;;;;5051052;28;20273;-73
2022/09/18 00:02:37;;;;;;;7.03;1.60;;;10.60;99.90;;;;;;5057937;28;20216;-73
2022/09/18 00:05:04;;;;;;;1.87;1.40;;;10.60;99.90;;;;;;5033356;28;20984;-73
2022/09/18 00:07:29;;;;;;;1.97;1.40;;;10.60;99.90;;;;;;5047263;28;20223;-73
2022/09/18 00:09:55;;;;;;;1.53;1.43;;;10.60;99.90;;;;;;5045041;28;20445;-72
2022/09/18 00:12:21;;;;;;;1.73;1.63;;;10.60;99.90;;;;;;5045410;28;20215;-73
2022/09/18 00:14:46;;;;;;;3.03;1.57;;;10.60;99.90;;;;;;5046278;28;20718;-72
2022/09/18 00:17:12;;;;;;;1.90;1.33;;;10.60;99.90;;;;;;5049796;28;20675;-73
2022/09/18 00:19:37;;;;;;;1.30;1.20;;;10.60;99.90;;;;;;5052616;28;20787;-73
2022/09/18 00:22:03;;;;;;;2.07;1.27;;;10.60;99.90;;;;;;5049851;28;20601;-72
2022/09/18 00:24:29;;;;;;;1.73;1.63;;;10.60;99.90;;;;;;5043227;28;20224;-73
2022/09/18 00:26:55;;;;;;;5.63;1.63;;;10.60;99.90;;;;;;5037784;28;20286;-71
2022/09/18 00:29:20;;;;;;;1.30;1.20;;;10.60;99.90;;;;;;5045672;28;20632;-74
2022/09/18 00:31:46;;;;;;;1.10;1.00;;;10.50;99.90;;;;;;5034470;28;20295;-72
2022/09/18 00:34:13;;;;;;;1.47;1.37;;;10.60;99.90;;;;;;5034515;28;20309;-73
2022/09/18 00:36:39;;;;;;;3.07;1.50;;;10.60;99.90;;;;;;5041347;28;20272;-72
2022/09/18 00:39:06;;;;;;;6.07;1.40;;;10.60;99.90;;;;;;5045894;28;20447;-72
2022/09/18 00:41:36;;;;;;;1.50;1.40;;;10.60;99.90;;;;;;5049745;28;20454;-73
2022/09/18 00:44:46;;;;;;;1.90;1.47;;;10.60;99.90;;;;;;5046318;28;20461;-72
2022/09/18 00:47:15;;;;;;;1.10;1.10;;;10.60;99.90;;;;;;5047051;28;21062;-72
2022/09/18 00:49:46;;;;;;;2.33;1.47;;;10.60;99.90;;;;;;5051716;28;20477;-73
2022/09/18 00:52:14;;;;;;;1.40;1.30;;;10.60;99.90;;;;;;5041252;28;20458;-73
2022/09/18 00:54:42;;;;;;;2.00;1.47;;;10.60;99.90;;;;;;5048991;28;20450;-71
2022/09/18 00:57:13;;;;;;;1.90;1.23;;;10.60;99.90;;;;;;5042368;28;20475;-73
2022/09/18 00:59:43;;;;;;;0.87;0.87;;;10.60;99.90;;;;;;5041613;28;20450;-72
2022/09/18 01:02:09;;;;;;;1.37;1.23;;;10.60;99.90;;;;;;5040508;28;20474;-73
2022/09/18 01:04:35;;;;;;;2.30;1.10;;;10.60;99.90;;;;;;5031877;28;20549;-73
2022/09/18 01:07:27;;;;;;;4.00;1.50;;;10.60;99.90;;;;;;5055527;28;20530;-73
2022/09/18 01:10:12;;;;;;;1.43;1.33;;;10.60;99.90;;;;;;5055298;28;20223;-74
2022/09/18 01:13:02;;;;;;;1.73;1.20;;;10.60;99.90;;;;;;5048612;28;20902;-73
2022/09/18 01:15:43;;;;;;;1.20;1.10;;;10.60;99.90;;;;;;5030073;28;20455;-73
2022/09/18 01:18:15;;;;;;;2.07;1.43;;;10.60;99.90;;;;;;5034420;28;20543;-71
2022/09/18 01:20:59;;;;;;;0.97;0.93;;;10.60;99.90;;;;;;5045040;28;20488;-72
2022/09/18 01:23:59;;;;;;;5.77;1.40;;;10.60;99.90;;;;;;5047945;28;20447;-73
2022/09/18 01:26:37;;;;;;;2.20;1.17;;;10.60;99.90;;;;;;5043117;28;21065;-72
2022/09/18 01:29:09;;;;;;;0.90;0.90;;;10.60;99.90;;;;;;5051121;28;20450;-72
2022/09/18 01:31:47;;;;;;;1.40;1.30;;;10.60;99.90;;;;;;5048403;28;20530;-73
2022/09/18 01:34:23;;;;;;;1.10;1.00;;;10.60;99.90;;;;;;5048618;28;20460;-73
2022/09/18 01:36:57;;;;;;;0.83;0.83;;;10.60;99.90;;;;;;5049254;28;20444;-73
2022/09/18 01:40:00;;;;;;;2.33;1.37;;;10.60;99.90;;;;;;5031063;28;20456;-73
2022/09/18 01:42:28;;;;;;;1.87;1.37;;;10.60;99.90;;;;;;5016817;28;20462;-73
2022/09/18 01:44:58;;;;;;;1.30;1.20;;;10.70;99.90;;;;;;5048557;28;20450;-72
2022/09/18 01:47:30;;;;;;;1.20;1.07;;;10.70;99.90;;;;;;5047323;28;20485;-73
2022/09/18 01:49:59;;;;;;;2.20;1.20;;;10.70;99.90;;;;;;5039425;28;20479;-73
2022/09/18 01:52:33;;;;;;;1.30;1.20;;;10.70;99.90;;;;;;5047945;28;20465;-73
2022/09/18 01:55:02;;;;;;;1.30;1.20;;;10.70;99.90;;;;;;5046158;28;20481;-72
2022/09/18 01:57:56;;;;;;;1.07;0.97;;;10.70;99.90;;;;;;5064678;28;21039;-72
2022/09/18 02:00:24;;;;;;;4.70;1.50;;;10.70;99.90;;;;;;5032651;28;20458;-73
2022/09/18 02:03:04;;;;;;;1.30;1.20;;;10.70;99.90;;;;;;5048189;28;20504;-72
2022/09/18 02:05:36;;;;;;;0.80;0.80;;;10.70;99.90;;;;;;5031307;28;20445;-72
2022/09/18 02:08:20;;;;;;;2.37;1.20;;;10.70;99.90;;;;;;5044474;28;20458;-72
2022/09/18 02:11:00;;;;;;;6.90;1.50;;;10.70;99.90;;;;;;5047566;28;20969;-73
2022/09/18 02:13:31;;;;;;;1.20;1.20;;;10.70;99.90;;;;;;5034138;28;20450;-72
2022/09/18 02:16:03;;;;;;;1.10;1.10;;;10.70;99.90;;;;;;5047846;28;20499;-73
2022/09/18 02:18:35;;;;;;;3.87;1.10;;;10.80;99.90;;;;;;5047539;28;20443;-72
2022/09/18 02:21:10;;;;;;;0.80;0.80;;;10.70;99.90;;;;;;5032391;28;20471;-73
2022/09/18 02:23:39;;;;;;;1.63;0.93;;;10.70;99.90;;;;;;5041820;28;20438;-72
2022/09/18 02:26:07;;;;;;;1.17;1.10;;;10.80;99.90;;;;;;5045995;28;20556;-73
2022/09/18 02:28:34;;;;;;;2.50;1.17;;;10.70;99.90;;;;;;5046580;28;20466;-72
2022/09/18 02:31:00;;;;;;;2.83;1.30;;;10.80;99.90;;;;;;5045068;28;20479;-73
2022/09/18 02:33:29;;;;;;;2.17;1.23;;;10.80;99.90;;;;;;5044400;28;20541;-73
2022/09/18 02:36:33;;;;;;;0.80;0.70;;;10.80;99.90;;;;;;5033191;28;20978;-73
2022/09/18 02:39:32;;;;;;;1.27;1.10;;;10.80;99.90;;;;;;5047841;28;20450;-73
2022/09/18 02:42:46;;;;;;;3.60;1.20;;;10.80;99.90;;;;;;5028656;28;20473;-73
2022/09/18 02:45:26;;;;;;;2.30;0.90;;;10.80;99.90;;;;;;4987454;28;20461;-72
2022/09/18 02:48:08;;;;;;;1.13;1.03;;;10.80;99.90;;;;;;5046354;28;20460;-72
2022/09/18 02:50:54;;;;;;;1.00;0.93;;;10.80;99.90;;;;;;5027622;28;20481;-72
2022/09/18 02:53:28;;;;;;;1.67;0.73;;;10.80;99.90;;;;;;5063576;28;20458;-72
2022/09/18 02:56:05;;;;;;;1.37;1.10;;;10.80;99.90;;;;;;5041462;28;20990;-72
2022/09/18 02:58:41;;;;;;;0.80;0.80;;;10.80;99.90;;;;;;5042325;28;20469;-72
2022/09/18 03:01:10;;;;;;;1.67;0.80;;;10.80;99.90;;;;;;5047898;28;20621;-73
2022/09/18 03:03:37;;;;;;;1.27;0.90;;;10.80;99.90;;;;;;5041035;28;20476;-73
2022/09/18 03:06:06;;;;;;;1.60;0.90;;;10.80;99.90;;;;;;5031682;28;20458;-72
2022/09/18 03:08:34;;;;;;;0.97;0.80;;;10.90;99.90;;;;;;5041502;28;20470;-73
2022/09/18 03:11:00;;;;;;;1.03;0.97;;;10.90;99.90;;;;;;5042588;28;20467;-73
2022/09/18 03:13:26;;;;;;;0.93;0.90;;;10.90;99.90;;;;;;5045579;28;20454;-73
2022/09/18 03:15:54;;;;;;;1.80;0.73;;;10.90;99.90;;;;;;5049063;28;20454;-72
2022/09/18 03:18:20;;;;;;;1.00;0.90;;;10.90;99.90;;;;;;5045362;28;20220;-73
2022/09/18 03:20:46;;;;;;;1.27;1.00;;;10.90;99.90;;;;;;5051101;28;20526;-73
2022/09/18 03:23:12;;;;;;;1.20;1.10;;;10.90;99.90;;;;;;5065687;28;20957;-73
2022/09/18 03:25:38;;;;;;;0.80;0.80;;;10.90;99.90;;;;;;5031074;28;20246;-72
2022/09/18 03:28:05;;;;;;;3.03;1.17;;;10.80;99.90;;;;;;5039939;28;20463;-72
2022/09/18 03:30:36;;;;;;;1.27;0.77;;;10.80;99.90;;;;;;5042950;28;20564;-73
2022/09/18 03:33:02;;;;;;;0.70;0.70;;;10.90;99.90;;;;;;5034497;28;20447;-72
2022/09/18 03:35:31;;;;;;;0.77;0.70;;;10.90;99.90;;;;;;5046273;28;20322;-73
2022/09/18 03:37:57;;;;;;;1.73;0.83;;;10.80;99.90;;;;;;5034429;28;20927;-72
2022/09/18 03:40:25;;;;;;;0.67;0.67;;;10.80;99.90;;;;;;5034758;28;20535;-72
2022/09/18 03:42:52;;;;;;;2.40;0.90;;;10.80;99.90;;;;;;5030348;28;20511;-73
2022/09/18 03:45:17;;;;;;;1.47;0.80;;;10.80;99.90;;;;;;5031241;28;20216;-74
2022/09/18 03:47:43;;;;;;;2.07;0.70;;;10.80;99.90;;;;;;5050818;28;20523;-73
2022/09/18 03:50:10;;;;;;;1.67;0.80;;;10.80;99.90;;;;;;5050990;28;20220;-73
2022/09/18 03:52:36;;;;;;;0.60;0.60;;;10.80;99.90;;;;;;5061756;28;20485;-73
2022/09/18 03:55:16;;;;;;;1.07;0.60;;;10.80;99.90;;;;;;5049953;28;20453;-73
2022/09/18 03:58:05;;;;;;;0.80;0.70;;;10.80;99.90;;;;;;5051634;28;20461;-73
2022/09/18 04:00:44;;;;;;;1.23;0.63;;;10.80;99.90;;;;;;5047817;28;20894;-72
2022/09/18 04:03:18;;;;;;;0.90;0.77;;;10.80;99.90;;;;;;5049755;28;20460;-73
2022/09/18 04:06:19;;;;;;;0.80;0.80;;;10.80;99.90;;;;;;5050683;28;20809;-73
2022/09/18 04:09:08;;;;;;;0.70;0.63;;;10.80;99.90;;;;;;5039711;28;20461;-73
2022/09/18 04:11:41;;;;;;;1.00;0.90;;;10.90;99.90;;;;;;5028745;28;20448;-72
2022/09/18 04:14:07;;;;;;;0.70;0.70;;;10.80;99.90;;;;;;5046071;28;20446;-73
2022/09/18 04:16:33;;;;;;;1.07;0.97;;;10.80;99.90;;;;;;5046268;28;20993;-73
2022/09/18 04:18:59;;;;;;;1.50;0.70;;;10.80;99.90;;;;;;5049994;28;20216;-73
2022/09/18 04:21:25;;;;;;;1.13;0.90;;;10.80;99.90;;;;;;5065887;28;20832;-73
2022/09/18 04:23:51;;;;;;;1.13;0.63;;;10.80;99.90;;;;;;5049505;28;20688;-73
2022/09/18 04:26:17;;;;;;;1.40;0.93;;;10.80;99.90;;;;;;5048849;28;20228;-72
2022/09/18 04:28:49;;;;;;;3.63;0.83;;;10.80;99.90;;;;;;5050565;28;20442;-73
2022/09/18 04:31:15;;;;;;;0.80;0.80;;;10.80;99.90;;;;;;5029807;28;20459;-72
2022/09/18 04:33:41;;;;;;;0.80;0.70;;;10.80;99.90;;;;;;5042052;28;20220;-73
2022/09/18 04:36:08;;;;;;;1.90;0.60;;;10.80;99.90;;;;;;5033287;28;20239;-73
2022/09/18 04:38:34;;;;;;;0.73;0.70;;;10.80;99.90;;;;;;5032575;28;20450;-73
2022/09/18 04:41:00;;;;;;;1.37;0.60;;;10.80;99.90;;;;;;5024585;28;20463;-73
2022/09/18 04:43:27;;;;;;;0.57;0.57;;;10.80;99.90;;;;;;5047449;28;20228;-73
2022/09/18 04:45:53;;;;;;;0.80;0.70;;;10.80;99.90;;;;;;5049764;28;20281;-73
2022/09/18 04:48:20;;;;;;;0.70;0.70;;;10.80;99.90;;;;;;5049416;28;20457;-73
2022/09/18 04:50:46;;;;;;;0.70;0.50;;;10.80;99.90;;;;;;5037907;28;20450;-73
2022/09/18 04:53:17;;;;;;;1.33;0.70;;;10.80;99.90;;;;;;5047404;28;20483;-73
2022/09/18 04:55:45;;;;;;;0.70;0.70;;;10.80;99.90;;;;;;5035695;28;20454;-72
2022/09/18 04:58:13;;;;;;;1.03;0.67;;;10.80;99.90;;;;;;5049229;28;20446;-73
2022/09/18 05:00:40;;;;;;;0.50;0.50;;;10.80;99.90;;;;;;5030944;28;20478;-73
2022/09/18 05:03:07;;;;;;;0.90;0.60;;;10.80;99.90;;;;;;5048966;28;20861;-73
2022/09/18 05:05:36;;;;;;;0.50;0.50;;;10.80;99.90;;;;;;5049109;28;20567;-72
2022/09/18 05:08:03;;;;;;;0.63;0.63;;;10.80;99.90;;;;;;5033139;28;20451;-73
2022/09/18 05:10:29;;;;;;;1.00;0.70;;;10.80;99.90;;;;;;5042479;28;20814;-73
2022/09/18 05:12:55;;;;;;;0.70;0.70;;;10.80;99.90;;;;;;5048734;28;20600;-73
2022/09/18 05:15:21;;;;;;;0.60;0.60;;;10.80;99.90;;;;;;5038052;28;21009;-73
2022/09/18 05:17:58;;;;;;;1.40;0.70;;;10.80;99.90;;;;;;5045045;28;20342;-73
2022/09/18 05:20:23;;;;;;;0.60;0.47;;;10.80;99.90;;;;;;5046409;28;20960;-73
2022/09/18 05:22:49;;;;;;;2.00;0.63;;;10.80;99.90;;;;;;5031629;28;20449;-73
2022/09/18 05:25:19;;;;;;;0.70;0.60;;;10.80;99.90;;;;;;5047697;28;20642;-73
2022/09/18 05:27:55;;;;;;;0.93;0.70;;;10.80;99.90;;;;;;5039495;28;20446;-73
2022/09/18 05:30:24;;;;;;;0.70;0.70;;;10.80;99.90;;;;;;5049257;28;20585;-73
2022/09/18 05:32:58;;;;;;;0.40;0.40;;;10.80;99.90;;;;;;5064321;28;20491;-73
2022/09/18 05:35:25;;;;;;;0.97;0.73;;;10.80;99.90;;;;;;5047963;28;20465;-73
2022/09/18 05:37:52;;;;;;;0.60;0.50;;;10.80;99.90;;;;;;5031309;28;20450;-72
2022/09/18 05:40:20;;;;;;;0.70;0.70;;;10.80;99.90;;;;;;5046186;28;20478;-72
2022/09/18 05:42:46;;;;;;;0.93;0.70;;;10.80;99.90;;;;;;5038832;28;20526;-72
2022/09/18 05:45:14;;;;;;;0.47;0.47;;;10.80;99.90;;;;;;5036354;28;20466;-72
2022/09/18 05:47:40;;;;;;;0.50;0.50;;;10.80;99.90;;;;;;5048337;28;20450;-73
2022/09/18 05:50:08;;;;;;;1.33;0.80;;;10.80;99.90;;;;;;5029316;28;20859;-72
2022/09/18 05:52:34;;;;;;;0.63;0.47;;;10.70;99.90;;;;;;5060994;28;20875;-72
2022/09/18 05:55:01;;;;;;;1.23;0.70;;;10.70;99.90;;;;;;5029018;28;20459;-73
2022/09/18 05:57:27;;;;;;;1.03;0.50;;;10.70;99.90;;;;;;5042951;28;21056;-73
2022/09/18 05:59:52;;;;;;;0.70;0.70;;;10.70;99.90;;;;;;5048092;28;20551;-72
2022/09/18 06:02:18;;;;;;;0.70;0.70;;;10.70;99.90;;;;;;5047138;28;20259;-73
2022/09/18 06:05:01;;;;;;;0.63;0.63;;;10.70;99.90;;;;;;5034394;28;20216;-72
2022/09/18 06:07:26;;;;;;;1.57;0.60;;;10.70;99.90;;;;;;5048506;28;20469;-73
2022/09/18 06:09:52;;;;;;;0.67;0.67;;;10.70;99.90;;;;;;5046718;28;20220;-73
2022/09/18 06:12:18;;;;;;;0.60;0.60;;;10.70;99.90;;;;;;5044693;28;20265;-72
2022/09/18 06:14:43;;;;;;;0.60;0.60;;;10.70;99.90;;;;;;5031470;28;20212;-73
2022/09/18 06:17:09;;;;;;;0.70;0.70;;;10.70;99.90;;;;;;5048208;28;20618;-73
2022/09/18 06:19:35;;;;;;;0.60;0.60;;;10.70;99.90;;;;;;5043294;28;20671;-72
2022/09/18 06:22:01;;;;;;;0.97;0.70;;;10.70;99.90;;;;;;5047051;28;20220;-72
2022/09/18 06:24:26;;;;;;;0.77;0.77;;;10.70;99.90;;;;;;5040990;28;20220;-73
2022/09/18 06:27:10;;;;;;;0.50;0.50;;;10.70;99.90;;;;;;5046073;28;20239;-73
2022/09/18 06:29:37;;;;;;;0.73;0.73;;;10.70;99.90;;;;;;5048075;28;20469;-72
2022/09/18 06:32:17;;;;;;;1.03;0.63;;;10.70;99.90;;;;;;5031776;28;20447;-73
2022/09/18 06:34:43;;;;;;;0.60;0.60;;;10.70;99.90;;;;;;5029175;28;20497;-73
2022/09/18 06:37:13;;;;;;;0.97;0.70;;;10.80;99.90;;;;;;5047973;28;20492;-72
2022/09/18 06:39:42;;;;;;;0.60;0.50;;;10.80;99.90;;;;;;5051689;28;20469;-73
2022/09/18 06:42:14;;;;;;;0.60;0.60;;;10.80;99.90;;;;;;5046981;28;20478;-73
2022/09/18 06:45:00;;;;;;;1.47;0.60;;;10.80;99.90;;;;;;5031614;28;20516;-73
2022/09/18 06:47:28;;;;;;;0.50;0.50;;;10.80;99.90;;;;;;5059671;28;20863;-73
2022/09/18 06:49:54;;;;;;;0.40;0.40;;;10.80;99.90;;;;;;5044027;28;20546;-73
2022/09/18 06:52:20;;;;;;;0.50;0.50;;;10.80;99.90;;;;;;5047186;28;20558;-73
2022/09/18 06:54:46;;;;;;;2.30;0.60;;;10.80;99.90;;;;;;5031929;28;20235;-73
2022/09/18 06:57:25;;;;;;;0.50;0.43;;;10.90;99.90;;;;;;5031184;28;20529;-73
2022/09/18 06:59:51;;;;;;;1.43;1.33;;;10.90;99.90;;;;;;5048434;28;20462;-72
2022/09/18 07:02:17;;;;;;;0.70;0.50;;;10.90;99.90;;;;;;5034164;28;20302;-73
2022/09/18 07:04:56;;;;;;;0.60;0.60;;;10.90;99.90;;;;;;5052105;28;20458;-72
2022/09/18 07:07:22;;;;;;;0.80;0.80;;;10.90;99.90;;;;;;5035293;28;20521;-74
2022/09/18 07:09:49;;;;;;;4.00;1.10;;;11.00;99.90;;;;;;5048982;28;20239;-73
2022/09/18 07:12:35;;;;;;;0.90;0.90;;;11.00;99.90;;;;;;5050584;28;22839;-73
2022/09/18 07:15:02;;;;;;;0.83;0.83;;;11.00;99.90;;;;;;5033465;28;20493;-72
2022/09/18 07:17:28;;;;;;;0.57;0.53;;;11.00;99.90;;;;;;5049597;28;20532;-71
2022/09/18 07:19:55;;;;;;;0.63;0.63;;;11.00;99.90;;;;;;5048099;28;20490;-73
2022/09/18 07:22:28;;;;;;;2.00;0.90;;;11.10;99.90;;;;;;5041714;28;20466;-72
2022/09/18 07:24:55;;;;;;;2.23;0.83;;;11.10;99.90;;;;;;5030912;28;21005;-73
2022/09/18 07:27:21;;;;;;;0.77;0.70;;;11.20;99.90;;;;;;5034899;28;20507;-73
2022/09/18 07:29:48;;;;;;;0.60;0.60;;;11.20;99.90;;;;;;5051383;28;20486;-73
2022/09/18 07:32:14;;;;;;;0.80;0.80;;;11.20;99.90;;;;;;5034168;28;21005;-73
2022/09/18 07:34:43;;;;;;;1.43;1.33;;;11.20;99.90;;;;;;5041740;28;20216;-73
2022/09/18 07:37:11;;;;;;;2.63;2.43;;;11.20;99.90;;;;;;5050028;28;20458;-72
2022/09/18 07:39:37;;;;;;;6.13;4.17;;;11.30;99.90;;;;;;5049534;28;20489;-73
2022/09/18 07:42:21;;;;;;;2.30;2.10;;;11.30;99.90;;;;;;5048978;28;20476;-72
2022/09/18 07:44:50;;;;;;;4.47;3.20;;;11.30;99.90;;;;;;5048214;28;20462;-73
2022/09/18 07:47:16;;;;;;;3.20;2.63;;;11.40;99.90;;;;;;5050051;28;20986;-73
2022/09/18 07:49:42;;;;;;;1.67;1.57;;;11.40;99.90;;;;;;5034140;28;20687;-73
2022/09/18 07:52:08;;;;;;;3.03;2.83;;;11.50;99.90;;;;;;5067077;28;20754;-73
2022/09/18 07:54:43;;;;;;;3.30;3.00;;;11.50;99.90;;;;;;5042774;28;21131;-72
2022/09/18 07:57:21;;;;;;;2.40;2.17;;;11.50;99.90;;;;;;5049644;28;20458;-73
2022/09/18 07:59:58;;;;;;;1.93;1.80;;;11.60;99.90;;;;;;5050270;28;20477;-73
2022/09/18 08:02:25;;;;;;;4.00;2.87;;;11.60;99.90;;;;;;5045948;28;20502;-73
2022/09/18 08:04:52;;;;;;;5.43;3.00;;;11.70;99.90;;;;;;5049768;28;20851;-73
2022/09/18 08:07:26;;;;;;;1.67;1.57;;;11.70;99.90;;;;;;5026516;28;20489;-73
2022/09/18 08:10:27;;;;;;;2.93;2.20;;;11.70;99.90;;;;;;5050655;28;20461;-71
2022/09/18 08:13:22;;;;;;;2.20;2.00;;;11.80;99.90;;;;;;5051131;28;20462;-72
2022/09/18 08:16:05;;;;;;;3.57;2.30;;;11.80;99.90;;;;;;5050782;28;20508;-73
2022/09/18 08:19:00;;;;;;;2.23;2.03;;;11.90;99.90;;;;;;5046101;28;20533;-71
2022/09/18 08:21:39;;;;;;;4.03;3.20;;;12.00;99.90;;;;;;5051392;28;20450;-73
2022/09/18 08:24:08;;;;;;;12.30;8.23;;;12.00;99.90;;;;;;5033952;28;20458;-73
2022/09/18 08:26:37;;;;;;;10.10;7.20;;;12.00;99.90;;;;;;5037633;28;20470;-73
2022/09/18 08:29:05;;;;;;;4.50;3.90;;;12.00;99.90;;;;;;5041305;28;20462;-73
2022/09/18 08:31:31;;;;;;;5.07;3.80;;;12.10;99.90;;;;;;5049648;28;20501;-72
2022/09/18 08:33:57;;;;;;;4.67;2.77;;;12.10;99.90;;;;;;5046895;28;20492;-73
2022/09/18 08:36:23;;;;;;;4.00;3.20;;;12.10;99.90;;;;;;5048520;28;20534;-73
2022/09/18 08:38:58;;;;;;;2.47;2.00;;;12.10;99.90;;;;;;5048396;28;20508;-72
2022/09/18 08:41:45;;;;;;;2.10;2.00;;;12.10;99.90;;;;;;5039945;28;20469;-71
2022/09/18 08:44:20;;;;;;;2.60;2.40;;;12.10;99.90;;;;;;5044619;28;20469;-73
2022/09/18 08:46:55;;;;;;;2.73;2.53;;;12.10;99.90;;;;;;5047320;28;20845;-72
2022/09/18 08:49:27;;;;;;;4.50;3.23;;;12.20;99.90;;;;;;5030375;28;20540;-74
2022/09/18 08:52:08;;;;;;;7.40;3.97;;;12.20;99.90;;;;;;5032843;28;20449;-72
2022/09/18 08:54:43;;;;;;;2.80;2.60;;;12.20;99.90;;;;;;5045554;28;20542;-72
2022/09/18 08:57:23;;;;;;;1.83;1.73;;;12.20;99.90;;;;;;5047024;28;20450;-72
2022/09/18 09:00:21;;;;;;;5.20;3.50;;;12.30;99.90;;;;;;5046024;28;20459;-73
2022/09/18 09:03:40;;;;;;;4.00;3.57;;;12.30;99.90;;;;;;5026965;28;20462;-72
2022/09/18 09:06:18;;;;;;;2.20;2.00;;;12.30;99.90;;;;;;5038102;28;20474;-73
2022/09/18 09:08:56;;;;;;;2.40;2.20;;;12.30;99.90;;;;;;5045186;28;20801;-73
2022/09/18 09:11:42;;;;;;;3.53;2.70;;;12.40;99.90;;;;;;5024792;28;20493;-73
2022/09/18 09:14:14;;;;;;;2.43;1.90;;;12.40;99.90;;;;;;5037837;28;20462;-74
2022/09/18 09:16:41;;;;;;;7.40;5.60;;;12.40;99.90;;;;;;5018278;28;20455;-73
2022/09/18 09:19:27;;;;;;;9.80;6.80;;;12.40;99.90;;;;;;5028492;28;20461;-73
2022/09/18 09:22:06;;;;;;;4.30;3.90;;;12.40;99.90;;;;;;5021063;28;20470;-72
2022/09/18 09:24:51;;;;;;;7.13;4.33;;;12.40;99.90;;;;;;5032234;28;20523;-72
2022/09/18 09:27:48;;;;;;;8.87;5.63;;;12.40;99.90;;;;;;5047244;28;20480;-73
2022/09/18 09:30:34;;;;;;;9.73;8.10;;;12.50;99.90;;;;;;5031960;28;20477;-73
2022/09/18 09:33:32;;;;;;;10.10;6.30;;;12.50;99.90;;;;;;5031644;28;21040;-74
2022/09/18 09:36:34;;;;;;;4.60;2.30;;;12.50;99.90;;;;;;5024574;28;20475;-72
2022/09/18 09:39:24;;;;;;;15.43;9.03;;;12.50;99.90;;;;;;5026927;28;20467;-73
2022/09/18 09:42:16;;;;;;;13.50;9.40;;;12.50;99.90;;;;;;5032548;28;20486;-73
2022/09/18 09:45:21;;;;;;;12.50;8.67;;;12.60;99.90;;;;;;5051387;28;20467;-73
2022/09/18 09:47:57;;;;;;;7.33;5.50;;;12.60;99.90;;;;;;5014454;28;20466;-73
2022/09/18 09:50:42;;;;;;;3.13;2.80;;;12.60;99.90;;;;;;5042159;28;20529;-72
2022/09/18 09:53:12;;;;;;;3.23;2.37;;;12.70;99.90;;;;;;5028375;28;20454;-74
2022/09/18 09:56:01;;;;;;;2.10;1.60;;;12.70;99.90;;;;;;5031204;28;20969;-73
2022/09/18 09:59:04;;;;;;;1.90;1.80;;;12.70;99.90;;;;;;5041898;28;20590;-72
2022/09/18 10:01:39;;;;;;;1.70;1.60;;;12.70;99.90;;;;;;5006849;28;20496;-73
2022/09/18 10:04:18;;;;;;;1.80;1.70;;;12.70;99.90;;;;;;5028681;28;20451;-72
2022/09/18 10:07:01;;;;;;;1.40;1.30;;;12.80;99.90;;;;;;5026030;28;20963;-72
2022/09/18 10:09:56;;;;;;;2.43;1.70;;;12.80;99.90;;;;;;5036903;28;20876;-73
2022/09/18 10:12:36;;;;;;;1.53;1.40;;;12.80;99.90;;;;;;5022503;28;20541;-73
2022/09/18 10:15:18;;;;;;;1.80;1.70;;;12.80;99.90;;;;;;5027489;28;20537;-72
2022/09/18 10:17:47;;;;;;;6.00;2.53;;;12.90;99.90;;;;;;5038217;28;20457;-73
2022/09/18 10:20:22;;;;;;;2.30;1.97;;;12.90;99.90;;;;;;5042818;28;20454;-72
2022/09/18 10:22:48;;;;;;;3.17;1.67;;;12.90;99.90;;;;;;5026742;28;20477;-73
2022/09/18 10:25:26;;;;;;;3.07;1.37;;;12.90;99.90;;;;;;5043163;28;20470;-72
2022/09/18 10:27:53;;;;;;;2.37;1.50;;;13.00;99.90;;;;;;5043421;28;20458;-72
2022/09/18 10:30:19;;;;;;;1.73;1.60;;;13.00;99.90;;;;;;5041453;28;20981;-74
2022/09/18 10:32:51;;;;;;;1.93;1.63;;;13.10;99.90;;;;;;5043489;28;20302;-72
2022/09/18 10:35:41;;;;;;;2.50;2.00;;;13.10;99.90;;;;;;5043970;28;20557;-73
2022/09/18 10:38:29;;;;;;;2.20;1.83;;;13.10;99.90;;;;;;5031269;28;20468;-72
2022/09/18 10:41:28;;;;;;;1.97;1.37;;;13.10;99.90;;;;;;5044654;28;21021;-73
2022/09/18 10:44:03;;;;;;;1.60;1.50;;;13.20;99.90;;;;;;5043922;28;20449;-73
2022/09/18 10:46:33;;;;;;;7.50;6.30;;;13.20;99.90;;;;;;5059806;28;20450;-72
2022/09/18 10:49:14;;;;;;;7.73;4.67;;;13.20;99.90;;;;;;5034175;28;20455;-72
2022/09/18 10:51:40;;;;;;;3.17;2.87;;;13.20;99.90;;;;;;5039252;28;20439;-72
2022/09/18 10:54:18;;;;;;;21.30;12.07;;;13.30;99.90;;;;;;5036137;28;20440;-72
2022/09/18 10:56:54;;;;;;;20.03;10.80;;;13.30;99.90;;;;;;5043275;28;20486;-73
2022/09/18 10:59:27;;;;;;;19.40;10.33;;;13.30;99.90;;;;;;5062775;28;20458;-73
2022/09/18 11:01:57;;;;;;;20.43;10.37;;;13.30;99.90;;;;;;5026202;28;20463;-72
2022/09/18 11:04:26;;;;;;;19.70;9.30;;;13.40;99.90;;;;;;5033008;28;20549;-73
2022/09/18 11:06:52;;;;;;;10.20;7.53;;;13.30;99.90;;;;;;5047868;28;20525;-73
2022/09/18 11:09:38;;;;;;;20.67;13.53;;;13.40;99.90;;;;;;5049162;28;20992;-73
2022/09/18 11:12:19;;;;;;;22.03;13.30;;;13.30;99.90;;;;;;5049277;28;20967;-72
2022/09/18 11:14:49;;;;;;;10.37;7.50;;;13.30;99.90;;;;;;5048592;28;20484;-72
2022/09/18 11:17:34;;;;;;;5.27;4.30;;;13.30;99.90;;;;;;5043059;28;20454;-72
2022/09/18 11:20:05;;;;;;;3.33;2.57;;;13.40;99.90;;;;;;5042015;28;20462;-72
2022/09/18 11:22:50;;;;;;;5.17;2.90;;;13.40;99.90;;;;;;5044034;28;20502;-73
2022/09/18 11:25:28;;;;;;;2.57;2.37;;;13.40;99.90;;;;;;5049636;28;20528;-73
2022/09/18 11:28:27;;;;;;;2.00;1.90;;;13.40;99.90;;;;;;5045421;28;20462;-73
2022/09/18 11:30:55;;;;;;;2.13;1.93;;;13.40;99.90;;;;;;5032737;28;20564;-72
2022/09/18 11:33:52;;;;;;;2.00;1.90;;;13.40;99.90;;;;;;5055857;28;20454;-73
2022/09/18 11:36:29;;;;;;;1.80;1.70;;;13.40;99.90;;;;;;5025321;28;20462;-72
2022/09/18 11:38:58;;;;;;;1.93;1.83;;;13.50;99.90;;;;;;5049592;28;20516;-73
2022/09/18 11:41:34;;;;;;;2.07;1.77;;;13.50;99.90;;;;;;5028053;28;20478;-72
2022/09/18 11:44:01;;;;;;;1.43;1.30;;;13.50;99.90;;;;;;5041139;28;20961;-73
2022/09/18 11:46:42;;;;;;;2.17;1.87;;;13.50;99.90;;;;;;5036736;28;20471;-72
2022/09/18 11:49:24;;;;;;;2.67;1.80;;;13.50;99.90;;;;;;5030436;28;20519;-72
2022/09/18 11:52:01;;;;;;;1.50;1.40;;;13.60;99.90;;;;;;5052922;28;20461;-73
2022/09/18 11:54:53;;;;;;;1.47;1.30;;;13.60;99.90;;;;;;5043209;28;20457;-72
2022/09/18 11:57:28;;;;;;;1.60;1.50;;;13.60;99.90;;;;;;5031759;28;20439;-69
2022/09/18 12:00:02;;;;;;;1.73;1.20;;;13.60;99.90;;;;;;5048541;28;20564;-69
2022/09/18 12:03:03;;;;;;;6.47;1.50;;;13.60;99.90;;;;;;5049162;28;20466;-70
2022/09/18 12:05:37;;;;;;;1.43;1.37;;;13.60;99.90;;;;;;5045912;28;20452;-69
2022/09/18 12:08:27;;;;;;;3.10;1.80;;;13.60;99.90;;;;;;5032532;28;20537;-70
2022/09/18 12:11:33;;;;;;;3.90;1.73;;;13.70;99.90;;;;;;5047321;28;20459;-70
2022/09/18 12:14:29;;;;;;;1.10;1.10;;;13.70;99.90;;;;;;5026274;28;20447;-70
2022/09/18 12:17:31;;;;;;;1.57;1.40;;;13.70;99.90;;;;;;5034429;28;20996;-72
2022/09/18 12:20:03;;;;;;;4.90;2.00;;;13.70;99.90;;;;;;5029761;28;20455;-72
2022/09/18 12:22:43;;;;;;;1.70;1.50;;;13.70;99.90;;;;;;5031504;28;21016;-72
2022/09/18 12:25:14;;;;;;;1.47;1.37;;;13.70;99.90;;;;;;5050479;28;20456;-72
2022/09/18 12:28:28;;;;;;;1.57;1.47;;;13.70;99.90;;;;;;5046332;28;20507;-72
2022/09/18 12:30:59;;;;;;;1.40;1.30;;;13.70;99.90;;;;;;5040430;28;20538;-72
2022/09/18 12:33:51;;;;;;;1.23;1.13;;;13.70;99.90;;;;;;5043047;28;20451;-72
2022/09/18 12:36:17;;;;;;;1.33;1.30;;;13.70;99.90;;;;;;5049735;28;20443;-72
2022/09/18 12:39:08;;;;;;;1.50;1.20;;;13.70;99.90;;;;;;5030657;28;20450;-72
2022/09/18 12:41:58;;;;;;;5.50;1.63;;;13.70;99.90;;;;;;5042054;28;20236;-71
2022/09/18 12:44:33;;;;;;;3.43;1.60;;;13.70;99.90;;;;;;5045449;28;20882;-72
2022/09/18 12:47:35;;;;;;;1.40;1.00;;;13.70;99.90;;;;;;5036282;28;21064;-72
2022/09/18 12:50:45;;;;;;;1.17;1.00;;;13.70;99.90;;;;;;5030843;28;20451;-72
2022/09/18 12:53:25;;;;;;;1.50;1.40;;;13.70;99.90;;;;;;5039912;28;20474;-71
2022/09/18 12:56:01;;;;;;;1.30;1.20;;;13.70;99.90;;;;;;5048316;28;20530;-72
2022/09/18 12:58:42;;;;;;;3.03;1.30;;;13.70;99.90;;;;;;5047600;28;20537;-72
2022/09/18 13:01:31;;;;;;;4.17;1.37;;;13.70;99.90;;;;;;5041416;28;20474;-72
2022/09/18 13:04:06;;;;;;;3.60;1.50;;;13.70;99.90;;;;;;5038514;28;20943;-72
2022/09/18 13:06:56;;;;;;;1.20;1.20;;;13.70;99.90;;;;;;5037263;28;20457;-71
2022/09/18 13:09:30;;;;;;;4.20;2.00;;;13.70;99.90;;;;;;5041971;28;20458;-72
2022/09/18 13:12:14;;;;;;;4.97;3.10;;;13.70;99.90;;;;;;5042880;28;20454;-71
2022/09/18 13:14:49;;;;;;;12.63;9.33;;;13.70;99.90;;;;;;5047691;28;20457;-72
2022/09/18 13:17:20;;;;;;;26.00;15.10;;;13.70;99.90;;;;;;5052697;28;20445;-71
2022/09/18 13:19:58;;;;;;;24.30;14.30;;;13.70;99.90;;;;;;5039552;28;20592;-72
2022/09/18 13:22:29;;;;;;;17.17;11.30;;;13.70;99.90;;;;;;5042774;28;20608;-72
2022/09/18 13:24:56;;;;;;;17.90;8.03;;;13.70;99.90;;;;;;5044280;28;20464;-72